sensor_id;sensor_type;location;lat;lon;timestamp;P1;durP1;ratioP1;P2;durP2;ratioP2
15327;SDS011;7764;51.430;6.840;2023-07-28T00:01:58;7.07;;;4.70;;
15327;SDS011;7764;51.430;6.840;2023-07-28T00:04:24;6.60;;;5.07;;
15327;SDS011;7764;51.430;6.840;2023-07-28T00:06:51;7.70;;;5.28;;
15327;SDS011;7764;51.430;6.840;2023-07-28T00:09:18;7.30;;;5.18;;
15327;SDS011;7764;51.430;6.840;2023-07-28T00:11:45;8.43;;;6.30;;
15327;SDS011;7764;51.430;6.840;2023-07-28T00:14:12;9.10;;;5.15;;
15327;SDS011;7764;51.430;6.840;2023-07-28T00:16:39;8.60;;;5.10;;
15327;SDS011;7764;51.430;6.840;2023-07-28T00:19:07;7.90;;;5.53;;
15327;SDS011;7764;51.430;6.840;2023-07-28T00:21:34;7.40;;;5.78;;
15327;SDS011;7764;51.430;6.840;2023-07-28T00:24:01;7.45;;;5.63;;
15327;SDS011;7764;51.430;6.840;2023-07-28T00:26:28;9.23;;;5.45;;
15327;SDS011;7764;51.430;6.840;2023-07-28T00:28:55;8.18;;;5.65;;
15327;SDS011;7764;51.430;6.840;2023-07-28T00:31:23;8.52;;;6.10;;
15327;SDS011;7764;51.430;6.840;2023-07-28T00:33:49;7.30;;;5.30;;
15327;SDS011;7764;51.430;6.840;2023-07-28T00:36:18;8.18;;;5.75;;
15327;SDS011;7764;51.430;6.840;2023-07-28T00:38:44;7.30;;;5.50;;
15327;SDS011;7764;51.430;6.840;2023-07-28T00:41:12;8.88;;;6.18;;
15327;SDS011;7764;51.430;6.840;2023-07-28T00:43:38;10.57;;;6.85;;
15327;SDS011;7764;51.430;6.840;2023-07-28T00:46:05;9.25;;;6.35;;
15327;SDS011;7764;51.430;6.840;2023-07-28T00:48:32;8.70;;;6.85;;
15327;SDS011;7764;51.430;6.840;2023-07-28T00:50:59;11.18;;;7.35;;
15327;SDS011;7764;51.430;6.840;2023-07-28T00:53:27;10.45;;;7.55;;
15327;SDS011;7764;51.430;6.840;2023-07-28T00:55:55;9.88;;;8.07;;
15327;SDS011;7764;51.430;6.840;2023-07-28T00:58:22;10.93;;;8.40;;
15327;SDS011;7764;51.430;6.840;2023-07-28T01:00:49;10.43;;;8.75;;
15327;SDS011;7764;51.430;6.840;2023-07-28T01:03:17;13.43;;;8.68;;
15327;SDS011;7764;51.430;6.840;2023-07-28T01:05:47;10.98;;;9.43;;
15327;SDS011;7764;51.430;6.840;2023-07-28T01:08:32;12.60;;;10.18;;
15327;SDS011;7764;51.430;6.840;2023-07-28T01:11:04;12.70;;;10.30;;
15327;SDS011;7764;51.430;6.840;2023-07-28T01:13:31;13.77;;;10.02;;
15327;SDS011;7764;51.430;6.840;2023-07-28T01:15:59;12.35;;;10.10;;
15327;SDS011;7764;51.430;6.840;2023-07-28T01:18:26;13.38;;;10.60;;
15327;SDS011;7764;51.430;6.840;2023-07-28T01:20:54;12.93;;;10.50;;
15327;SDS011;7764;51.430;6.840;2023-07-28T01:23:23;14.00;;;10.95;;
15327;SDS011;7764;51.430;6.840;2023-07-28T01:26:01;13.10;;;10.82;;
15327;SDS011;7764;51.430;6.840;2023-07-28T01:28:34;16.30;;;10.82;;
15327;SDS011;7764;51.430;6.840;2023-07-28T01:31:02;16.08;;;12.27;;
15327;SDS011;7764;51.430;6.840;2023-07-28T01:33:29;16.42;;;12.10;;
15327;SDS011;7764;51.430;6.840;2023-07-28T01:35:56;14.15;;;11.35;;
15327;SDS011;7764;51.430;6.840;2023-07-28T01:38:23;14.77;;;11.07;;
15327;SDS011;7764;51.430;6.840;2023-07-28T01:40:50;14.95;;;11.82;;
15327;SDS011;7764;51.430;6.840;2023-07-28T01:43:17;15.25;;;12.82;;
15327;SDS011;7764;51.430;6.840;2023-07-28T01:45:46;16.10;;;13.60;;
15327;SDS011;7764;51.430;6.840;2023-07-28T01:48:12;14.70;;;12.57;;
15327;SDS011;7764;51.430;6.840;2023-07-28T01:50:39;16.85;;;13.20;;
15327;SDS011;7764;51.430;6.840;2023-07-28T01:53:06;16.88;;;13.48;;
15327;SDS011;7764;51.430;6.840;2023-07-28T01:55:34;15.90;;;13.52;;
15327;SDS011;7764;51.430;6.840;2023-07-28T01:58:01;15.57;;;12.43;;
15327;SDS011;7764;51.430;6.840;2023-07-28T02:00:28;15.80;;;14.10;;
15327;SDS011;7764;51.430;6.840;2023-07-28T02:02:56;17.73;;;13.60;;
15327;SDS011;7764;51.430;6.840;2023-07-28T02:05:23;16.98;;;12.07;;
15327;SDS011;7764;51.430;6.840;2023-07-28T02:07:50;16.35;;;12.65;;
15327;SDS011;7764;51.430;6.840;2023-07-28T02:10:17;15.38;;;12.32;;
15327;SDS011;7764;51.430;6.840;2023-07-28T02:12:44;13.70;;;11.30;;
15327;SDS011;7764;51.430;6.840;2023-07-28T02:15:11;16.00;;;12.40;;
15327;SDS011;7764;51.430;6.840;2023-07-28T02:17:38;14.38;;;11.95;;
15327;SDS011;7764;51.430;6.840;2023-07-28T02:20:07;15.68;;;11.82;;
15327;SDS011;7764;51.430;6.840;2023-07-28T02:22:35;14.15;;;11.90;;
15327;SDS011;7764;51.430;6.840;2023-07-28T02:25:02;15.20;;;12.18;;
15327;SDS011;7764;51.430;6.840;2023-07-28T02:27:30;14.73;;;12.45;;
15327;SDS011;7764;51.430;6.840;2023-07-28T02:29:56;13.23;;;11.18;;
15327;SDS011;7764;51.430;6.840;2023-07-28T02:32:24;13.23;;;11.10;;
15327;SDS011;7764;51.430;6.840;2023-07-28T02:34:51;18.50;;;12.73;;
15327;SDS011;7764;51.430;6.840;2023-07-28T02:37:19;13.25;;;11.73;;
15327;SDS011;7764;51.430;6.840;2023-07-28T02:39:46;14.00;;;11.50;;
15327;SDS011;7764;51.430;6.840;2023-07-28T02:42:13;13.70;;;11.80;;
15327;SDS011;7764;51.430;6.840;2023-07-28T02:44:40;14.65;;;12.25;;
15327;SDS011;7764;51.430;6.840;2023-07-28T02:47:07;15.75;;;12.48;;
15327;SDS011;7764;51.430;6.840;2023-07-28T02:49:34;17.02;;;12.52;;
15327;SDS011;7764;51.430;6.840;2023-07-28T02:52:01;13.40;;;11.73;;
15327;SDS011;7764;51.430;6.840;2023-07-28T02:54:30;16.98;;;12.25;;
15327;SDS011;7764;51.430;6.840;2023-07-28T02:56:56;15.13;;;11.63;;
15327;SDS011;7764;51.430;6.840;2023-07-28T02:59:23;13.85;;;11.52;;
15327;SDS011;7764;51.430;6.840;2023-07-28T03:01:50;13.93;;;10.98;;
15327;SDS011;7764;51.430;6.840;2023-07-28T03:04:17;13.70;;;11.35;;
15327;SDS011;7764;51.430;6.840;2023-07-28T03:06:45;14.25;;;10.98;;
15327;SDS011;7764;51.430;6.840;2023-07-28T03:09:12;11.88;;;9.00;;
15327;SDS011;7764;51.430;6.840;2023-07-28T03:11:41;10.70;;;8.32;;
15327;SDS011;7764;51.430;6.840;2023-07-28T03:14:08;11.45;;;8.57;;
15327;SDS011;7764;51.430;6.840;2023-07-28T03:16:35;11.07;;;8.10;;
15327;SDS011;7764;51.430;6.840;2023-07-28T03:19:02;10.05;;;7.60;;
15327;SDS011;7764;51.430;6.840;2023-07-28T03:21:29;10.80;;;6.90;;
15327;SDS011;7764;51.430;6.840;2023-07-28T03:23:57;9.52;;;7.03;;
15327;SDS011;7764;51.430;6.840;2023-07-28T03:26:24;10.80;;;7.60;;
15327;SDS011;7764;51.430;6.840;2023-07-28T03:28:52;10.10;;;7.15;;
15327;SDS011;7764;51.430;6.840;2023-07-28T03:31:19;9.60;;;7.13;;
15327;SDS011;7764;51.430;6.840;2023-07-28T03:33:46;9.85;;;7.20;;
15327;SDS011;7764;51.430;6.840;2023-07-28T03:36:12;10.35;;;7.82;;
15327;SDS011;7764;51.430;6.840;2023-07-28T03:38:39;10.52;;;7.93;;
15327;SDS011;7764;51.430;6.840;2023-07-28T03:41:06;8.23;;;6.43;;
15327;SDS011;7764;51.430;6.840;2023-07-28T03:43:33;8.20;;;6.82;;
15327;SDS011;7764;51.430;6.840;2023-07-28T03:46:03;12.85;;;8.98;;
15327;SDS011;7764;51.430;6.840;2023-07-28T03:48:30;8.38;;;5.72;;
15327;SDS011;7764;51.430;6.840;2023-07-28T03:50:57;9.98;;;6.97;;
15327;SDS011;7764;51.430;6.840;2023-07-28T03:53:24;8.73;;;6.07;;
15327;SDS011;7764;51.430;6.840;2023-07-28T03:55:50;7.53;;;5.75;;
15327;SDS011;7764;51.430;6.840;2023-07-28T03:58:18;7.22;;;5.80;;
15327;SDS011;7764;51.430;6.840;2023-07-28T04:00:46;7.25;;;5.28;;
15327;SDS011;7764;51.430;6.840;2023-07-28T04:03:14;8.68;;;5.50;;
15327;SDS011;7764;51.430;6.840;2023-07-28T04:05:41;6.68;;;5.32;;
15327;SDS011;7764;51.430;6.840;2023-07-28T04:08:08;6.68;;;5.70;;
15327;SDS011;7764;51.430;6.840;2023-07-28T04:10:35;7.38;;;5.78;;
15327;SDS011;7764;51.430;6.840;2023-07-28T04:13:01;7.47;;;5.80;;
15327;SDS011;7764;51.430;6.840;2023-07-28T04:15:28;6.35;;;5.43;;
15327;SDS011;7764;51.430;6.840;2023-07-28T04:17:55;7.32;;;5.30;;
15327;SDS011;7764;51.430;6.840;2023-07-28T04:20:23;8.68;;;5.43;;
15327;SDS011;7764;51.430;6.840;2023-07-28T04:22:50;6.25;;;4.63;;
15327;SDS011;7764;51.430;6.840;2023-07-28T04:25:17;6.28;;;4.00;;
15327;SDS011;7764;51.430;6.840;2023-07-28T04:27:44;10.73;;;6.70;;
15327;SDS011;7764;51.430;6.840;2023-07-28T04:30:11;6.32;;;4.05;;
15327;SDS011;7764;51.430;6.840;2023-07-28T04:32:38;5.68;;;4.20;;
15327;SDS011;7764;51.430;6.840;2023-07-28T04:35:05;5.90;;;4.18;;
15327;SDS011;7764;51.430;6.840;2023-07-28T04:37:34;6.25;;;4.53;;
15327;SDS011;7764;51.430;6.840;2023-07-28T04:40:01;11.73;;;9.48;;
15327;SDS011;7764;51.430;6.840;2023-07-28T04:42:28;5.93;;;4.70;;
15327;SDS011;7764;51.430;6.840;2023-07-28T04:44:55;4.97;;;3.90;;
15327;SDS011;7764;51.430;6.840;2023-07-28T04:47:22;5.05;;;3.85;;
15327;SDS011;7764;51.430;6.840;2023-07-28T04:49:49;6.30;;;3.90;;
15327;SDS011;7764;51.430;6.840;2023-07-28T04:52:15;5.85;;;3.88;;
15327;SDS011;7764;51.430;6.840;2023-07-28T04:54:44;6.05;;;4.00;;
15327;SDS011;7764;51.430;6.840;2023-07-28T04:57:10;6.63;;;3.88;;
15327;SDS011;7764;51.430;6.840;2023-07-28T04:59:38;13.48;;;10.45;;
15327;SDS011;7764;51.430;6.840;2023-07-28T05:02:05;5.95;;;4.30;;
15327;SDS011;7764;51.430;6.840;2023-07-28T05:04:32;6.32;;;4.05;;
15327;SDS011;7764;51.430;6.840;2023-07-28T05:06:59;6.28;;;4.22;;
15327;SDS011;7764;51.430;6.840;2023-07-28T05:09:26;5.75;;;4.10;;
15327;SDS011;7764;51.430;6.840;2023-07-28T05:11:54;5.07;;;3.83;;
15327;SDS011;7764;51.430;6.840;2023-07-28T05:14:21;5.72;;;4.40;;
15327;SDS011;7764;51.430;6.840;2023-07-28T05:16:48;6.15;;;4.20;;
15327;SDS011;7764;51.430;6.840;2023-07-28T05:19:15;6.05;;;4.13;;
15327;SDS011;7764;51.430;6.840;2023-07-28T05:21:41;5.75;;;4.82;;
15327;SDS011;7764;51.430;6.840;2023-07-28T05:24:08;5.50;;;4.38;;
15327;SDS011;7764;51.430;6.840;2023-07-28T05:26:36;6.22;;;4.82;;
15327;SDS011;7764;51.430;6.840;2023-07-28T05:29:04;6.40;;;4.55;;
15327;SDS011;7764;51.430;6.840;2023-07-28T05:31:31;9.55;;;4.80;;
15327;SDS011;7764;51.430;6.840;2023-07-28T05:33:57;7.93;;;5.35;;
15327;SDS011;7764;51.430;6.840;2023-07-28T05:36:25;7.40;;;6.53;;
15327;SDS011;7764;51.430;6.840;2023-07-28T05:38:53;7.10;;;5.05;;
15327;SDS011;7764;51.430;6.840;2023-07-28T05:41:21;14.05;;;11.52;;
15327;SDS011;7764;51.430;6.840;2023-07-28T05:43:48;12.50;;;7.53;;
15327;SDS011;7764;51.430;6.840;2023-07-28T05:46:17;9.15;;;7.22;;
15327;SDS011;7764;51.430;6.840;2023-07-28T05:48:44;7.82;;;5.70;;
15327;SDS011;7764;51.430;6.840;2023-07-28T05:51:11;15.35;;;13.75;;
15327;SDS011;7764;51.430;6.840;2023-07-28T05:53:39;7.50;;;5.68;;
15327;SDS011;7764;51.430;6.840;2023-07-28T05:56:07;7.07;;;5.63;;
15327;SDS011;7764;51.430;6.840;2023-07-28T05:58:34;7.57;;;5.53;;
15327;SDS011;7764;51.430;6.840;2023-07-28T06:01:01;7.95;;;5.90;;
15327;SDS011;7764;51.430;6.840;2023-07-28T06:03:29;8.55;;;6.15;;
15327;SDS011;7764;51.430;6.840;2023-07-28T06:05:56;8.27;;;6.43;;
15327;SDS011;7764;51.430;6.840;2023-07-28T06:08:23;7.70;;;5.45;;
15327;SDS011;7764;51.430;6.840;2023-07-28T06:10:50;8.38;;;5.95;;
15327;SDS011;7764;51.430;6.840;2023-07-28T06:13:17;9.50;;;6.78;;
15327;SDS011;7764;51.430;6.840;2023-07-28T06:15:44;23.77;;;17.52;;
15327;SDS011;7764;51.430;6.840;2023-07-28T06:18:11;8.25;;;6.38;;
15327;SDS011;7764;51.430;6.840;2023-07-28T06:20:41;8.65;;;6.00;;
15327;SDS011;7764;51.430;6.840;2023-07-28T06:23:08;7.13;;;5.25;;
15327;SDS011;7764;51.430;6.840;2023-07-28T06:25:35;7.25;;;4.85;;
15327;SDS011;7764;51.430;6.840;2023-07-28T06:28:03;8.02;;;5.07;;
15327;SDS011;7764;51.430;6.840;2023-07-28T06:30:30;8.63;;;5.70;;
15327;SDS011;7764;51.430;6.840;2023-07-28T06:32:57;9.90;;;6.82;;
15327;SDS011;7764;51.430;6.840;2023-07-28T06:35:23;10.27;;;6.18;;
15327;SDS011;7764;51.430;6.840;2023-07-28T06:37:52;8.18;;;5.60;;
15327;SDS011;7764;51.430;6.840;2023-07-28T06:40:18;8.80;;;6.20;;
15327;SDS011;7764;51.430;6.840;2023-07-28T06:42:45;8.65;;;5.97;;
15327;SDS011;7764;51.430;6.840;2023-07-28T06:45:12;8.70;;;5.90;;
15327;SDS011;7764;51.430;6.840;2023-07-28T06:47:40;9.18;;;6.68;;
15327;SDS011;7764;51.430;6.840;2023-07-28T06:50:07;8.38;;;6.40;;
15327;SDS011;7764;51.430;6.840;2023-07-28T06:52:34;7.75;;;6.20;;
15327;SDS011;7764;51.430;6.840;2023-07-28T06:55:03;9.70;;;6.13;;
15327;SDS011;7764;51.430;6.840;2023-07-28T06:57:30;8.85;;;5.45;;
15327;SDS011;7764;51.430;6.840;2023-07-28T06:59:57;11.05;;;6.30;;
15327;SDS011;7764;51.430;6.840;2023-07-28T07:02:25;10.80;;;6.60;;
15327;SDS011;7764;51.430;6.840;2023-07-28T07:04:52;8.57;;;6.85;;
15327;SDS011;7764;51.430;6.840;2023-07-28T07:07:18;9.52;;;6.70;;
15327;SDS011;7764;51.430;6.840;2023-07-28T07:09:45;9.48;;;6.40;;
15327;SDS011;7764;51.430;6.840;2023-07-28T07:12:13;10.98;;;7.70;;
15327;SDS011;7764;51.430;6.840;2023-07-28T07:14:40;9.10;;;6.38;;
15327;SDS011;7764;51.430;6.840;2023-07-28T07:17:07;8.15;;;5.93;;
15327;SDS011;7764;51.430;6.840;2023-07-28T07:19:34;8.73;;;5.82;;
15327;SDS011;7764;51.430;6.840;2023-07-28T07:22:01;9.18;;;5.75;;
15327;SDS011;7764;51.430;6.840;2023-07-28T07:24:28;9.52;;;6.25;;
15327;SDS011;7764;51.430;6.840;2023-07-28T07:26:55;8.95;;;6.00;;
15327;SDS011;7764;51.430;6.840;2023-07-28T07:29:23;8.63;;;6.15;;
15327;SDS011;7764;51.430;6.840;2023-07-28T07:31:50;8.60;;;5.57;;
15327;SDS011;7764;51.430;6.840;2023-07-28T07:34:21;15.48;;;11.55;;
15327;SDS011;7764;51.430;6.840;2023-07-28T07:36:48;9.65;;;5.90;;
15327;SDS011;7764;51.430;6.840;2023-07-28T07:39:15;8.35;;;5.75;;
15327;SDS011;7764;51.430;6.840;2023-07-28T07:41:41;8.57;;;6.32;;
15327;SDS011;7764;51.430;6.840;2023-07-28T07:44:08;9.60;;;6.22;;
15327;SDS011;7764;51.430;6.840;2023-07-28T07:46:36;10.13;;;6.68;;
15327;SDS011;7764;51.430;6.840;2023-07-28T07:49:03;8.90;;;6.80;;
15327;SDS011;7764;51.430;6.840;2023-07-28T07:51:30;9.43;;;6.82;;
15327;SDS011;7764;51.430;6.840;2023-07-28T07:53:59;10.18;;;7.80;;
15327;SDS011;7764;51.430;6.840;2023-07-28T07:56:26;11.07;;;8.82;;
15327;SDS011;7764;51.430;6.840;2023-07-28T07:58:53;9.85;;;7.68;;
15327;SDS011;7764;51.430;6.840;2023-07-28T08:01:20;11.80;;;7.97;;
15327;SDS011;7764;51.430;6.840;2023-07-28T08:03:48;10.07;;;7.43;;
15327;SDS011;7764;51.430;6.840;2023-07-28T08:06:15;9.95;;;7.57;;
15327;SDS011;7764;51.430;6.840;2023-07-28T08:08:42;9.63;;;7.72;;
15327;SDS011;7764;51.430;6.840;2023-07-28T08:11:10;9.10;;;7.07;;
15327;SDS011;7764;51.430;6.840;2023-07-28T08:13:37;9.95;;;7.50;;
15327;SDS011;7764;51.430;6.840;2023-07-28T08:16:04;9.00;;;7.20;;
15327;SDS011;7764;51.430;6.840;2023-07-28T08:18:32;8.82;;;6.55;;
15327;SDS011;7764;51.430;6.840;2023-07-28T08:21:02;6.20;;;5.28;;
15327;SDS011;7764;51.430;6.840;2023-07-28T08:23:29;7.40;;;5.22;;
15327;SDS011;7764;51.430;6.840;2023-07-28T08:25:56;7.35;;;5.75;;
15327;SDS011;7764;51.430;6.840;2023-07-28T08:28:23;7.75;;;6.18;;
15327;SDS011;7764;51.430;6.840;2023-07-28T08:30:53;7.00;;;6.25;;
15327;SDS011;7764;51.430;6.840;2023-07-28T08:33:21;6.45;;;5.38;;
15327;SDS011;7764;51.430;6.840;2023-07-28T08:35:48;6.40;;;5.20;;
15327;SDS011;7764;51.430;6.840;2023-07-28T08:38:16;8.35;;;5.72;;
15327;SDS011;7764;51.430;6.840;2023-07-28T08:40:43;6.63;;;5.40;;
15327;SDS011;7764;51.430;6.840;2023-07-28T08:43:10;6.57;;;4.72;;
15327;SDS011;7764;51.430;6.840;2023-07-28T08:45:37;5.68;;;4.05;;
15327;SDS011;7764;51.430;6.840;2023-07-28T08:48:04;7.88;;;4.20;;
15327;SDS011;7764;51.430;6.840;2023-07-28T08:50:31;6.28;;;3.97;;
15327;SDS011;7764;51.430;6.840;2023-07-28T08:52:58;5.05;;;4.00;;
15327;SDS011;7764;51.430;6.840;2023-07-28T08:55:27;5.13;;;3.88;;
15327;SDS011;7764;51.430;6.840;2023-07-28T08:57:54;19.23;;;16.20;;
15327;SDS011;7764;51.430;6.840;2023-07-28T09:00:21;7.90;;;5.20;;
15327;SDS011;7764;51.430;6.840;2023-07-28T09:02:50;14.52;;;10.95;;
15327;SDS011;7764;51.430;6.840;2023-07-28T09:05:17;9.98;;;7.25;;
15327;SDS011;7764;51.430;6.840;2023-07-28T09:07:46;5.18;;;3.63;;
15327;SDS011;7764;51.430;6.840;2023-07-28T09:10:13;5.15;;;3.35;;
15327;SDS011;7764;51.430;6.840;2023-07-28T09:12:46;5.38;;;3.83;;
15327;SDS011;7764;51.430;6.840;2023-07-28T09:15:14;7.18;;;6.07;;
15327;SDS011;7764;51.430;6.840;2023-07-28T09:17:42;9.45;;;6.43;;
15327;SDS011;7764;51.430;6.840;2023-07-28T09:20:12;4.63;;;3.53;;
15327;SDS011;7764;51.430;6.840;2023-07-28T09:22:40;7.28;;;4.72;;
15327;SDS011;7764;51.430;6.840;2023-07-28T09:25:11;4.93;;;4.20;;
15327;SDS011;7764;51.430;6.840;2023-07-28T09:27:39;9.20;;;5.03;;
15327;SDS011;7764;51.430;6.840;2023-07-28T09:30:07;6.65;;;4.82;;
15327;SDS011;7764;51.430;6.840;2023-07-28T09:32:34;5.63;;;4.50;;
15327;SDS011;7764;51.430;6.840;2023-07-28T09:35:06;5.63;;;4.25;;
15327;SDS011;7764;51.430;6.840;2023-07-28T09:37:36;6.95;;;4.10;;
15327;SDS011;7764;51.430;6.840;2023-07-28T09:40:06;6.40;;;4.57;;
15327;SDS011;7764;51.430;6.840;2023-07-28T09:42:36;4.78;;;3.72;;
15327;SDS011;7764;51.430;6.840;2023-07-28T09:45:04;6.28;;;4.55;;
15327;SDS011;7764;51.430;6.840;2023-07-28T09:47:33;7.57;;;5.35;;
15327;SDS011;7764;51.430;6.840;2023-07-28T09:50:02;6.85;;;4.45;;
15327;SDS011;7764;51.430;6.840;2023-07-28T09:52:31;5.57;;;4.43;;
15327;SDS011;7764;51.430;6.840;2023-07-28T09:55:00;4.95;;;3.60;;
15327;SDS011;7764;51.430;6.840;2023-07-28T09:57:31;4.88;;;3.47;;
15327;SDS011;7764;51.430;6.840;2023-07-28T10:00:03;5.30;;;4.00;;
15327;SDS011;7764;51.430;6.840;2023-07-28T10:02:31;5.68;;;3.60;;
15327;SDS011;7764;51.430;6.840;2023-07-28T10:05:01;6.97;;;4.15;;
15327;SDS011;7764;51.430;6.840;2023-07-28T10:07:31;5.90;;;3.83;;
15327;SDS011;7764;51.430;6.840;2023-07-28T10:10:00;6.82;;;4.35;;
15327;SDS011;7764;51.430;6.840;2023-07-28T10:12:27;5.55;;;3.97;;
15327;SDS011;7764;51.430;6.840;2023-07-28T10:15:01;5.82;;;4.40;;
15327;SDS011;7764;51.430;6.840;2023-07-28T10:17:30;5.72;;;4.15;;
15327;SDS011;7764;51.430;6.840;2023-07-28T10:20:01;6.88;;;5.93;;
15327;SDS011;7764;51.430;6.840;2023-07-28T10:22:34;8.95;;;4.20;;
15327;SDS011;7764;51.430;6.840;2023-07-28T10:25:09;4.97;;;3.70;;
15327;SDS011;7764;51.430;6.840;2023-07-28T10:27:37;6.45;;;3.78;;
15327;SDS011;7764;51.430;6.840;2023-07-28T10:30:10;9.00;;;5.35;;
15327;SDS011;7764;51.430;6.840;2023-07-28T10:32:39;4.18;;;3.38;;
15327;SDS011;7764;51.430;6.840;2023-07-28T10:35:09;4.75;;;3.67;;
15327;SDS011;7764;51.430;6.840;2023-07-28T10:37:48;5.68;;;3.05;;
15327;SDS011;7764;51.430;6.840;2023-07-28T10:40:22;6.00;;;3.05;;
15327;SDS011;7764;51.430;6.840;2023-07-28T10:42:50;4.43;;;3.20;;
15327;SDS011;7764;51.430;6.840;2023-07-28T10:45:17;6.60;;;3.28;;
15327;SDS011;7764;51.430;6.840;2023-07-28T10:47:45;4.32;;;3.28;;
15327;SDS011;7764;51.430;6.840;2023-07-28T10:50:14;4.60;;;3.58;;
15327;SDS011;7764;51.430;6.840;2023-07-28T10:52:41;5.03;;;3.00;;
15327;SDS011;7764;51.430;6.840;2023-07-28T10:55:12;5.35;;;3.42;;
15327;SDS011;7764;51.430;6.840;2023-07-28T10:57:40;4.85;;;4.07;;
15327;SDS011;7764;51.430;6.840;2023-07-28T11:00:08;4.95;;;3.33;;
15327;SDS011;7764;51.430;6.840;2023-07-28T11:02:37;5.53;;;3.63;;
15327;SDS011;7764;51.430;6.840;2023-07-28T11:05:09;4.35;;;3.38;;
15327;SDS011;7764;51.430;6.840;2023-07-28T11:07:38;12.00;;;7.07;;
15327;SDS011;7764;51.430;6.840;2023-07-28T11:10:08;4.82;;;3.90;;
15327;SDS011;7764;51.430;6.840;2023-07-28T11:12:38;5.45;;;3.65;;
15327;SDS011;7764;51.430;6.840;2023-07-28T11:15:07;4.15;;;3.53;;
15327;SDS011;7764;51.430;6.840;2023-07-28T11:17:36;5.75;;;4.70;;
15327;SDS011;7764;51.430;6.840;2023-07-28T11:20:04;5.32;;;4.53;;
15327;SDS011;7764;51.430;6.840;2023-07-28T11:22:35;9.02;;;4.30;;
15327;SDS011;7764;51.430;6.840;2023-07-28T11:25:06;12.95;;;4.70;;
15327;SDS011;7764;51.430;6.840;2023-07-28T11:27:35;7.57;;;4.72;;
15327;SDS011;7764;51.430;6.840;2023-07-28T11:30:03;5.63;;;4.53;;
15327;SDS011;7764;51.430;6.840;2023-07-28T11:32:33;5.35;;;3.75;;
15327;SDS011;7764;51.430;6.840;2023-07-28T11:35:04;6.50;;;3.10;;
15327;SDS011;7764;51.430;6.840;2023-07-28T11:37:32;13.10;;;4.53;;
15327;SDS011;7764;51.430;6.840;2023-07-28T11:39:59;11.88;;;4.35;;
15327;SDS011;7764;51.430;6.840;2023-07-28T11:42:28;8.57;;;3.97;;
15327;SDS011;7764;51.430;6.840;2023-07-28T11:44:55;5.63;;;3.47;;
15327;SDS011;7764;51.430;6.840;2023-07-28T11:47:23;6.70;;;3.80;;
15327;SDS011;7764;51.430;6.840;2023-07-28T11:49:50;9.38;;;7.18;;
15327;SDS011;7764;51.430;6.840;2023-07-28T11:52:17;3.92;;;2.75;;
15327;SDS011;7764;51.430;6.840;2023-07-28T11:54:44;4.57;;;2.97;;
15327;SDS011;7764;51.430;6.840;2023-07-28T11:57:11;4.40;;;2.78;;
15327;SDS011;7764;51.430;6.840;2023-07-28T11:59:41;6.90;;;5.40;;
15327;SDS011;7764;51.430;6.840;2023-07-28T12:02:08;4.00;;;3.00;;
15327;SDS011;7764;51.430;6.840;2023-07-28T12:04:35;4.75;;;3.10;;
15327;SDS011;7764;51.430;6.840;2023-07-28T12:07:04;2.92;;;2.45;;
15327;SDS011;7764;51.430;6.840;2023-07-28T12:09:31;3.25;;;2.60;;
15327;SDS011;7764;51.430;6.840;2023-07-28T12:11:59;3.65;;;2.60;;
15327;SDS011;7764;51.430;6.840;2023-07-28T12:14:32;3.47;;;2.08;;
15327;SDS011;7764;51.430;6.840;2023-07-28T12:17:01;5.43;;;3.78;;
15327;SDS011;7764;51.430;6.840;2023-07-28T12:19:28;10.18;;;9.10;;
15327;SDS011;7764;51.430;6.840;2023-07-28T12:21:56;3.88;;;2.25;;
15327;SDS011;7764;51.430;6.840;2023-07-28T12:24:23;3.70;;;2.40;;
15327;SDS011;7764;51.430;6.840;2023-07-28T12:26:50;4.40;;;2.17;;
15327;SDS011;7764;51.430;6.840;2023-07-28T12:29:17;3.47;;;2.08;;
15327;SDS011;7764;51.430;6.840;2023-07-28T12:31:45;2.28;;;2.00;;
15327;SDS011;7764;51.430;6.840;2023-07-28T12:34:13;3.25;;;2.30;;
15327;SDS011;7764;51.430;6.840;2023-07-28T12:36:40;3.40;;;1.80;;
15327;SDS011;7764;51.430;6.840;2023-07-28T12:39:07;3.45;;;1.77;;
15327;SDS011;7764;51.430;6.840;2023-07-28T12:41:35;2.33;;;1.48;;
15327;SDS011;7764;51.430;6.840;2023-07-28T12:44:02;5.35;;;4.80;;
15327;SDS011;7764;51.430;6.840;2023-07-28T12:46:30;2.75;;;1.70;;
15327;SDS011;7764;51.430;6.840;2023-07-28T12:48:57;8.15;;;7.05;;
15327;SDS011;7764;51.430;6.840;2023-07-28T12:51:25;4.82;;;2.28;;
15327;SDS011;7764;51.430;6.840;2023-07-28T12:53:53;2.50;;;1.85;;
15327;SDS011;7764;51.430;6.840;2023-07-28T12:56:20;2.67;;;1.70;;
15327;SDS011;7764;51.430;6.840;2023-07-28T12:58:47;3.28;;;2.22;;
15327;SDS011;7764;51.430;6.840;2023-07-28T13:01:14;2.30;;;1.60;;
15327;SDS011;7764;51.430;6.840;2023-07-28T13:03:41;1.80;;;1.67;;
15327;SDS011;7764;51.430;6.840;2023-07-28T13:06:08;1.70;;;1.50;;
15327;SDS011;7764;51.430;6.840;2023-07-28T13:08:37;3.15;;;1.52;;
15327;SDS011;7764;51.430;6.840;2023-07-28T13:11:04;2.70;;;1.52;;
15327;SDS011;7764;51.430;6.840;2023-07-28T13:13:31;2.97;;;1.60;;
15327;SDS011;7764;51.430;6.840;2023-07-28T13:15:58;3.08;;;1.58;;
15327;SDS011;7764;51.430;6.840;2023-07-28T13:18:25;3.05;;;2.05;;
15327;SDS011;7764;51.430;6.840;2023-07-28T13:20:54;2.15;;;1.48;;
15327;SDS011;7764;51.430;6.840;2023-07-28T13:23:21;3.80;;;1.85;;
15327;SDS011;7764;51.430;6.840;2023-07-28T13:25:50;2.13;;;1.70;;
15327;SDS011;7764;51.430;6.840;2023-07-28T13:28:17;1.45;;;1.30;;
15327;SDS011;7764;51.430;6.840;2023-07-28T13:30:44;1.77;;;1.50;;
15327;SDS011;7764;51.430;6.840;2023-07-28T13:33:11;2.63;;;1.55;;
15327;SDS011;7764;51.430;6.840;2023-07-28T13:35:39;2.17;;;1.40;;
15327;SDS011;7764;51.430;6.840;2023-07-28T13:38:06;2.53;;;1.30;;
15327;SDS011;7764;51.430;6.840;2023-07-28T13:40:34;3.35;;;1.60;;
15327;SDS011;7764;51.430;6.840;2023-07-28T13:43:02;1.65;;;1.50;;
15327;SDS011;7764;51.430;6.840;2023-07-28T13:45:29;3.42;;;2.08;;
15327;SDS011;7764;51.430;6.840;2023-07-28T13:47:57;5.90;;;5.30;;
15327;SDS011;7764;51.430;6.840;2023-07-28T13:50:24;6.28;;;2.58;;
15327;SDS011;7764;51.430;6.840;2023-07-28T13:52:51;5.00;;;1.50;;
15327;SDS011;7764;51.430;6.840;2023-07-28T13:55:18;5.03;;;2.67;;
15327;SDS011;7764;51.430;6.840;2023-07-28T13:57:45;2.85;;;1.50;;
15327;SDS011;7764;51.430;6.840;2023-07-28T14:00:14;3.58;;;2.50;;
15327;SDS011;7764;51.430;6.840;2023-07-28T14:02:41;4.28;;;2.45;;
15327;SDS011;7764;51.430;6.840;2023-07-28T14:05:08;6.88;;;5.07;;
15327;SDS011;7764;51.430;6.840;2023-07-28T14:07:36;10.90;;;7.25;;
15327;SDS011;7764;51.430;6.840;2023-07-28T14:10:03;6.70;;;3.08;;
15327;SDS011;7764;51.430;6.840;2023-07-28T14:12:34;4.32;;;2.22;;
15327;SDS011;7764;51.430;6.840;2023-07-28T14:15:01;2.42;;;1.70;;
15327;SDS011;7764;51.430;6.840;2023-07-28T14:17:29;4.07;;;1.90;;
15327;SDS011;7764;51.430;6.840;2023-07-28T14:19:56;2.20;;;1.50;;
15327;SDS011;7764;51.430;6.840;2023-07-28T14:22:24;4.57;;;2.00;;
15327;SDS011;7764;51.430;6.840;2023-07-28T14:24:51;3.58;;;1.80;;
15327;SDS011;7764;51.430;6.840;2023-07-28T14:27:18;1.70;;;1.30;;
15327;SDS011;7764;51.430;6.840;2023-07-28T14:29:45;2.75;;;2.10;;
15327;SDS011;7764;51.430;6.840;2023-07-28T14:32:12;2.28;;;1.58;;
15327;SDS011;7764;51.430;6.840;2023-07-28T14:34:41;2.60;;;1.67;;
15327;SDS011;7764;51.430;6.840;2023-07-28T14:37:08;3.30;;;1.95;;
15327;SDS011;7764;51.430;6.840;2023-07-28T14:39:36;1.83;;;1.50;;
15327;SDS011;7764;51.430;6.840;2023-07-28T14:42:03;2.22;;;1.40;;
15327;SDS011;7764;51.430;6.840;2023-07-28T14:44:31;2.25;;;1.60;;
15327;SDS011;7764;51.430;6.840;2023-07-28T14:46:58;1.70;;;1.60;;
15327;SDS011;7764;51.430;6.840;2023-07-28T14:49:25;2.50;;;1.77;;
15327;SDS011;7764;51.430;6.840;2023-07-28T14:51:54;3.58;;;1.77;;
15327;SDS011;7764;51.430;6.840;2023-07-28T14:54:21;1.73;;;1.30;;
15327;SDS011;7764;51.430;6.840;2023-07-28T14:56:48;2.03;;;1.75;;
15327;SDS011;7764;51.430;6.840;2023-07-28T14:59:16;2.85;;;1.70;;